메인 페이지
METAR-TAF:

METAR-TAF

공항 :

보보디울라소, 부르키나파소

위도: 11-10N, 경도: 004-19W, 고도: 460m

현재 날씨관측

예보는 38분 전, 22:00시(UTC)에 발표되었습니다.
남서2kt
온도 31°C
습도 63%
기압 1014 hPa
시정 10km 이상
1500m 미만 상공 구름 및 적란운 없음

METAR: DFOO 012200Z 22002KT CAVOK 31/23 Q1014

시각: 22:38 (22:38 UTC)

예보

예보는 5 시간 38분 전, 17:00시(UTC)에 발표되었습니다.
예보 대상 시간: 01일 18시부터 02일 18시까지 (UTC)
남남서8kt
시정 10km 이상
고도 2000ft 상공 구름 조금
일시적
01일 18시부터 02일 02시까지 (UTC)
시정: 4000m
고도 2000ft 상공 구름 보통
고도 3300ft 상공 구름 보통, 적란운.
뇌우, 비

TAF: DFOO 011700Z 0118/0218 20008KT 9999 FEW020 TEMPO 0118/0202 4000 TSRA SCT020 SCT033CB

4,000개 이상의 공항 관측 자료 및 예보 (METAR 및 TAF 보고).

지도상에서 검색 가능한 기상관측소가 노란 점과 빨간 점으로 표시되어 있습니다.

기상관측소 명을 보려면 표시 위로 마우스를 이동하세요.

날씨 관측과 예보를 보려면 클릭하세요.

지도 변경 : 확대하려면 엑스 표시가 있는 녹색 버튼, 축소하려면 빼기 표시가 있는 녹색 버튼, 다음 페이지의 지도를 보려면 녹색 화살표를 클릭하세요.


METAR-TAF: